Temp: 11.7°C   Baro: 993.0mb
  Wind: 2.9mph   Dir: SSE (160°)
  Rain: 0.6mm (0.0mm/hr)
  Solar: 0W/m2  Hum: 76%
 
Bath Spa Weather Station Historical Data
Daily Summary for August 17, 2019 Units:  Both    English   Metric
Daily Weekly Monthly Yearly Custom
  High: Low: Average:
Temperature: 60.9 °F /  16.1 °C 41.9 °F /  5.5 °C 50.8 °F /  10.4 °C
Dew Point: 53.3 °F /  11.8 °C 40.1 °F /  4.5 °C 46.7 °F /  8.2 °C
Humidity: 94.9% 69.8% 86%
Wind Speed: 8.9mph /  14.3km/h - 2.8mph /  4.5km/h
Wind Gust: 21mph /  33.8km/h - -
Wind- - SSW
Pressure: 29.72 in /  1006.3 hPa 29.49 in /  998.5 hPa -
Precipitation: 0.02 in /  0.51 mm    
Historical Graphs
 
 
Tabular Data for August 17, 2019
Time Temperature Dew Point Pressure Wind Wind Speed Wind Gust Humidity Rainfall Rate (Hourly) solar
00:04 46.6 °F /  8.1 °C 44.1 °F /  6.7 °C 29.71in /  1006hPa NW 0.7mph /  1.1km/h 5mph /  8km/h 91% 0.00in /  0mm 0 W/m2
00:09 46.6 °F /  8.1 °C 44.1 °F /  6.7 °C 29.71in /  1006hPa NW 0.1mph /  0.2km/h 1mph /  1.6km/h 91% 0.00in /  0mm 0 W/m2
00:14 46.4 °F /  8 °C 43.9 °F /  6.6 °C 29.71in /  1006hPa Calm   1mph /  1.6km/h 91% 0.00in /  0mm 0 W/m2
00:19 46.2 °F /  7.9 °C 43.7 °F /  6.5 °C 29.71in /  1006hPa Calm     91% 0.00in /  0mm 0 W/m2
00:24 46 °F /  7.8 °C 43.5 °F /  6.4 °C 29.71in /  1006hPa Calm     91% 0.00in /  0mm 0 W/m2
00:29 45.9 °F /  7.7 °C 43.4 °F /  6.3 °C 29.71in /  1006hPa Calm     91% 0.00in /  0mm 0 W/m2
00:34 45.8 °F /  7.7 °C 43.3 °F /  6.3 °C 29.71in /  1006hPa Calm     91% 0.00in /  0mm 0 W/m2
00:39 45.7 °F /  7.6 °C 43.2 °F /  6.2 °C 29.71in /  1006hPa Calm     91% 0.00in /  0mm 0 W/m2
00:44 45.2 °F /  7.3 °C 42.7 °F /  5.9 °C 29.71in /  1006hPa Calm     91% 0.00in /  0mm 0 W/m2
00:49 45 °F /  7.2 °C 42.5 °F /  5.8 °C 29.71in /  1006hPa Calm     91% 0.00in /  0mm 0 W/m2
00:54 45 °F /  7.2 °C 42.4 °F /  5.8 °C 29.71in /  1006hPa Calm     91% 0.00in /  0mm 0 W/m2
00:59 44.9 °F /  7.2 °C 42.4 °F /  5.8 °C 29.71in /  1006hPa Calm     91% 0.00in /  0mm 0 W/m2
01:04 44.7 °F /  7.1 °C 42.2 °F /  5.7 °C 29.71in /  1006hPa Calm     91% 0.00in /  0mm 0 W/m2
01:09 44.6 °F /  7 °C 42.1 °F /  5.6 °C 29.71in /  1006hPa Calm     91% 0.00in /  0mm 0 W/m2
01:14 44.6 °F /  7 °C 42.1 °F /  5.6 °C 29.71in /  1006hPa Calm     91% 0.00in /  0mm 0 W/m2
01:19 44.5 °F /  6.9 °C 42 °F /  5.6 °C 29.71in /  1006hPa Calm     91% 0.00in /  0mm 0 W/m2
01:24 44.3 °F /  6.8 °C 41.8 °F /  5.4 °C 29.71in /  1006hPa Calm     91% 0.00in /  0mm 0 W/m2
01:29 44.2 °F /  6.8 °C 41.7 °F /  5.4 °C 29.72in /  1006.3hPa Calm     91% 0.00in /  0mm 0 W/m2
01:34 44.2 °F /  6.8 °C 41.7 °F /  5.4 °C 29.72in /  1006.3hPa Calm     91% 0.00in /  0mm 0 W/m2
01:39 44.2 °F /  6.8 °C 41.7 °F /  5.4 °C 29.72in /  1006.3hPa Calm     91% 0.00in /  0mm 0 W/m2
01:44 44.1 °F /  6.7 °C 41.5 °F /  5.3 °C 29.71in /  1006hPa Calm     91% 0.00in /  0mm 0 W/m2
01:49 44 °F /  6.7 °C 41.5 °F /  5.3 °C 29.71in /  1006hPa Calm     91% 0.00in /  0mm 0 W/m2
01:54 43.9 °F /  6.6 °C 41.6 °F /  5.3 °C 29.71in /  1006hPa Calm     91.6% 0.00in /  0mm 0 W/m2
01:59 43.8 °F /  6.6 °C 41.6 °F /  5.3 °C 29.71in /  1006hPa Calm     92% 0.00in /  0mm 0 W/m2
02:04 43.5 °F /  6.4 °C 41.4 °F /  5.2 °C 29.71in /  1006hPa Calm     92% 0.00in /  0mm 0 W/m2
02:09 43.5 °F /  6.4 °C 41.4 °F /  5.2 °C 29.71in /  1006hPa Calm     92% 0.00in /  0mm 0 W/m2
02:14 43.3 °F /  6.3 °C 41.2 °F /  5.1 °C 29.71in /  1006hPa Calm     92% 0.00in /  0mm 0 W/m2
02:19 43.2 °F /  6.2 °C 41 °F /  5 °C 29.71in /  1006hPa NW 0.5mph /  0.8km/h 2mph /  3.2km/h 92% 0.00in /  0mm 0 W/m2
02:24 43.2 °F /  6.2 °C 41 °F /  5 °C 29.71in /  1006hPa NW 0.1mph /  0.2km/h 2mph /  3.2km/h 92% 0.00in /  0mm 0 W/m2
02:29 43.2 °F /  6.2 °C 41 °F /  5 °C 29.71in /  1006hPa Calm   2mph /  3.2km/h 92% 0.00in /  0mm 0 W/m2
02:34 43.2 °F /  6.2 °C 41 °F /  5 °C 29.71in /  1006hPa NW 0.2mph /  0.3km/h 1mph /  1.6km/h 92% 0.00in /  0mm 0 W/m2
02:39 43 °F /  6.1 °C 40.8 °F /  4.9 °C 29.71in /  1006hPa Calm   1mph /  1.6km/h 92% 0.00in /  0mm 0 W/m2
02:44 43 °F /  6.1 °C 40.8 °F /  4.9 °C 29.71in /  1006hPa Calm     92% 0.00in /  0mm 0 W/m2
02:49 43 °F /  6.1 °C 40.8 °F /  4.9 °C 29.71in /  1006hPa Calm     92% 0.00in /  0mm 0 W/m2
02:54 42.9 °F /  6.1 °C 40.7 °F /  4.8 °C 29.71in /  1006hPa NW 0.4mph /  0.6km/h 2mph /  3.2km/h 92% 0.00in /  0mm 0 W/m2
02:59 42.8 °F /  6 °C 40.6 °F /  4.8 °C 29.71in /  1006hPa WNW 0.6mph /  1km/h 3mph /  4.8km/h 92% 0.00in /  0mm 0 W/m2
03:04 42.7 °F /  5.9 °C 40.6 °F /  4.8 °C 29.71in /  1006hPa WNW 0.1mph /  0.2km/h 1mph /  1.6km/h 92% 0.00in /  0mm 0 W/m2
03:09 42.6 °F /  5.9 °C 40.5 °F /  4.7 °C 29.71in /  1006hPa Calm     92% 0.00in /  0mm 0 W/m2
03:14 42.6 °F /  5.9 °C 40.7 °F /  4.8 °C 29.71in /  1006hPa WNW 0.2mph /  0.3km/h 1mph /  1.6km/h 92.7% 0.00in /  0mm 0 W/m2
03:19 42.5 °F /  5.8 °C 40.4 °F /  4.7 °C 29.71in /  1006hPa Calm     92.1% 0.00in /  0mm 0 W/m2
03:24 42.4 °F /  5.8 °C 40.3 °F /  4.6 °C 29.71in /  1006hPa Calm     92% 0.00in /  0mm 0 W/m2
03:29 42.3 °F /  5.7 °C 40.2 °F /  4.6 °C 29.71in /  1006hPa Calm     92.2% 0.00in /  0mm 0 W/m2
03:34 42.3 °F /  5.7 °C 40.5 °F /  4.7 °C 29.71in /  1006hPa Calm     93% 0.00in /  0mm 0 W/m2
03:39 42.3 °F /  5.7 °C 40.5 °F /  4.7 °C 29.71in /  1006hPa WNW 0.1mph /  0.2km/h 1mph /  1.6km/h 93% 0.00in /  0mm 0 W/m2
03:44 42.1 °F /  5.6 °C 40.3 °F /  4.6 °C 29.71in /  1006hPa Calm     93% 0.00in /  0mm 0 W/m2
03:49 42.1 °F /  5.6 °C 40.3 °F /  4.6 °C 29.70in /  1005.6hPa Calm     93% 0.00in /  0mm 0 W/m2
03:54 42 °F /  5.6 °C 40.2 °F /  4.6 °C 29.70in /  1005.6hPa WNW 0.1mph /  0.2km/h 1mph /  1.6km/h 93% 0.00in /  0mm 0 W/m2
03:59 41.9 °F /  5.5 °C 40.1 °F /  4.5 °C 29.70in /  1005.6hPa Calm   1mph /  1.6km/h 93% 0.00in /  0mm 0 W/m2
04:04 41.9 °F /  5.5 °C 40.1 °F /  4.5 °C 29.71in /  1006hPa Calm     93% 0.00in /  0mm 0 W/m2
04:09 41.9 °F /  5.5 °C 40.1 °F /  4.5 °C 29.71in /  1006hPa Calm   1mph /  1.6km/h 93% 0.00in /  0mm 0 W/m2
04:14 42.1 °F /  5.6 °C 40.3 °F /  4.6 °C 29.71in /  1006hPa Calm     93% 0.00in /  0mm 0 W/m2
04:19 42.2 °F /  5.7 °C 40.4 °F /  4.7 °C 29.71in /  1006hPa Calm   1mph /  1.6km/h 93% 0.00in /  0mm 0 W/m2
04:24 42.4 °F /  5.8 °C 40.6 °F /  4.8 °C 29.70in /  1005.6hPa Calm   1mph /  1.6km/h 93% 0.00in /  0mm 0 W/m2
04:29 42.5 °F /  5.8 °C 40.7 °F /  4.8 °C 29.70in /  1005.6hPa WNW 0.1mph /  0.2km/h 1mph /  1.6km/h 93% 0.00in /  0mm 0 W/m2
04:34 43 °F /  6.1 °C 41.2 °F /  5.1 °C 29.70in /  1005.6hPa WNW 0.6mph /  1km/h 2mph /  3.2km/h 93% 0.00in /  0mm 0 W/m2
04:39 43.3 °F /  6.3 °C 41.5 °F /  5.3 °C 29.70in /  1005.6hPa Calm   2mph /  3.2km/h 93% 0.00in /  0mm 0 W/m2
04:44 43.7 °F /  6.5 °C 41.9 °F /  5.5 °C 29.70in /  1005.6hPa WNW 0.2mph /  0.3km/h 1mph /  1.6km/h 93.5% 0.00in /  0mm 0 W/m2
04:49 43.9 °F /  6.6 °C 42.2 °F /  5.7 °C 29.70in /  1005.6hPa WNW 0.2mph /  0.3km/h 1mph /  1.6km/h 93.8% 0.00in /  0mm 0 W/m2
04:54 43.9 °F /  6.6 °C 42.3 °F /  5.7 °C 29.70in /  1005.6hPa Calm   1mph /  1.6km/h 94% 0.00in /  0mm 0 W/m2
04:59 43.9 °F /  6.6 °C 42.3 °F /  5.7 °C 29.70in /  1005.6hPa WNW 0.1mph /  0.2km/h 1mph /  1.6km/h 94% 0.00in /  0mm 0 W/m2
05:04 43.9 °F /  6.6 °C 42.3 °F /  5.7 °C 29.70in /  1005.6hPa Calm   1mph /  1.6km/h 94% 0.00in /  0mm 0 W/m2
05:09 43.7 °F /  6.5 °C 42.1 °F /  5.6 °C 29.70in /  1005.6hPa Calm     94% 0.00in /  0mm 0 W/m2
05:14 43.8 °F /  6.6 °C 42.2 °F /  5.7 °C 29.70in /  1005.6hPa WNW 0.4mph /  0.6km/h 3mph /  4.8km/h 94% 0.00in /  0mm 0 W/m2
05:19 43.7 °F /  6.5 °C 42.1 °F /  5.6 °C 29.70in /  1005.6hPa Calm   3mph /  4.8km/h 94% 0.00in /  0mm 0 W/m2
05:24 43.5 °F /  6.4 °C 41.8 °F /  5.4 °C 29.70in /  1005.6hPa Calm   1mph /  1.6km/h 93.5% 0.00in /  0mm 0 W/m2
05:29 43.3 °F /  6.3 °C 41.6 °F /  5.3 °C 29.70in /  1005.6hPa Calm     93.7% 0.00in /  0mm 0 W/m2
05:34 43.3 °F /  6.3 °C 41.7 °F /  5.4 °C 29.70in /  1005.6hPa Calm     94% 0.00in /  0mm 0 W/m2
05:39 43.2 °F /  6.2 °C 41.5 °F /  5.3 °C 29.70in /  1005.6hPa Calm     94% 0.00in /  0mm 0 W/m2
05:44 43.1 °F /  6.2 °C 41.4 °F /  5.2 °C 29.70in /  1005.6hPa Calm     94% 0.00in /  0mm 0 W/m2
05:49 43 °F /  6.1 °C 41.4 °F /  5.2 °C 29.70in /  1005.6hPa Calm     94% 0.00in /  0mm 0 W/m2
05:54 42.8 °F /  6 °C 41.2 °F /  5.1 °C 29.70in /  1005.6hPa Calm     94% 0.00in /  0mm 0 W/m2
05:59 42.7 °F /  5.9 °C 41.1 °F /  5.1 °C 29.70in /  1005.6hPa Calm     94% 0.00in /  0mm 0 W/m2
06:04 42.6 °F /  5.9 °C 41 °F /  5 °C 29.69in /  1005.3hPa Calm     94% 0.00in /  0mm 0 W/m2
06:09 42.4 °F /  5.8 °C 40.8 °F /  4.9 °C 29.69in /  1005.3hPa Calm     94% 0.00in /  0mm 0 W/m2
06:14 42.4 °F /  5.8 °C 40.8 °F /  4.9 °C 29.69in /  1005.3hPa WNW 0.2mph /  0.3km/h 2mph /  3.2km/h 94% 0.00in /  0mm 0 W/m2
06:19 42.4 °F /  5.8 °C 40.8 °F /  4.9 °C 29.69in /  1005.3hPa WNW 0.2mph /  0.3km/h 2mph /  3.2km/h 94% 0.00in /  0mm 0 W/m2
06:24 42.4 °F /  5.8 °C 40.8 °F /  4.9 °C 29.69in /  1005.3hPa Calm   1mph /  1.6km/h 94% 0.00in /  0mm 0 W/m2
06:29 42.4 °F /  5.8 °C 40.8 °F /  4.9 °C 29.69in /  1005.3hPa Calm     94% 0.00in /  0mm 0 W/m2
06:34 42.4 °F /  5.8 °C 40.8 °F /  4.9 °C 29.69in /  1005.3hPa Calm     94% 0.00in /  0mm 0 W/m2
06:39 42.4 °F /  5.8 °C 40.7 °F /  4.8 °C 29.69in /  1005.3hPa Calm     94% 0.00in /  0mm 0 W/m2
06:44 42.4 °F /  5.8 °C 40.7 °F /  4.8 °C 29.69in /  1005.3hPa Calm     94% 0.00in /  0mm 0 W/m2
06:49 42.6 °F /  5.9 °C 41 °F /  5 °C 29.69in /  1005.3hPa Calm     94% 0.00in /  0mm 0 W/m2
06:54 42.6 °F /  5.9 °C 41 °F /  5 °C 29.69in /  1005.3hPa Calm     94% 0.00in /  0mm 0 W/m2
06:59 42.4 °F /  5.8 °C 40.8 °F /  4.9 °C 29.69in /  1005.3hPa Calm     94% 0.00in /  0mm 0 W/m2
07:04 42.6 °F /  5.9 °C 41 °F /  5 °C 29.69in /  1005.3hPa Calm     94% 0.00in /  0mm 0 W/m2
07:09 42.9 °F /  6.1 °C 41.3 °F /  5.2 °C 29.69in /  1005.3hPa Calm     94% 0.00in /  0mm 0 W/m2
07:14 43.2 °F /  6.2 °C 41.5 °F /  5.3 °C 29.68in /  1005hPa WNW 0.7mph /  1.1km/h 3mph /  4.8km/h 94% 0.00in /  0mm 0 W/m2
07:19 43.2 °F /  6.2 °C 41.5 °F /  5.3 °C 29.68in /  1005hPa Calm   3mph /  4.8km/h 94% 0.00in /  0mm 0 W/m2
07:24 43.2 °F /  6.2 °C 41.6 °F /  5.3 °C 29.68in /  1005hPa Calm     94% 0.00in /  0mm 0 W/m2
07:29 43.3 °F /  6.3 °C 41.7 °F /  5.4 °C 29.68in /  1005hPa WNW 0.2mph /  0.3km/h 1mph /  1.6km/h 94% 0.00in /  0mm 0 W/m2
07:34 43.5 °F /  6.4 °C 41.9 °F /  5.5 °C 29.68in /  1005hPa Calm   1mph /  1.6km/h 94% 0.00in /  0mm 0 W/m2
07:39 43.7 °F /  6.5 °C 42.1 °F /  5.6 °C 29.68in /  1005hPa Calm     94% 0.00in /  0mm 5 W/m2
07:44 43.7 °F /  6.5 °C 42.1 °F /  5.6 °C 29.68in /  1005hPa Calm     94% 0.00in /  0mm 7 W/m2
07:49 43.6 °F /  6.4 °C 42 °F /  5.6 °C 29.68in /  1005hPa Calm     94% 0.00in /  0mm 9 W/m2
07:54 43.5 °F /  6.4 °C 41.9 °F /  5.5 °C 29.68in /  1005hPa WNW 0.2mph /  0.3km/h 1mph /  1.6km/h 94% 0.00in /  0mm 12 W/m2
07:59 43.5 °F /  6.4 °C 41.9 °F /  5.5 °C 29.68in /  1005hPa Calm   1mph /  1.6km/h 94% 0.00in /  0mm 18 W/m2
08:04 44 °F /  6.7 °C 42.3 °F /  5.7 °C 29.68in /  1005hPa Calm   1mph /  1.6km/h 94% 0.00in /  0mm 21 W/m2
08:09 44.3 °F /  6.8 °C 42.7 °F /  5.9 °C 29.68in /  1005hPa Calm     94% 0.00in /  0mm 21 W/m2
08:14 44.4 °F /  6.9 °C 42.8 °F /  6 °C 29.68in /  1005hPa Calm     94% 0.00in /  0mm 21 W/m2
08:19 44.3 °F /  6.8 °C 42.7 °F /  5.9 °C 29.68in /  1005hPa Calm     94% 0.00in /  0mm 23 W/m2
08:24 44.2 °F /  6.8 °C 42.6 °F /  5.9 °C 29.68in /  1005hPa Calm     94% 0.00in /  0mm 25 W/m2
08:29 44.4 °F /  6.9 °C 42.8 °F /  6 °C 29.68in /  1005hPa WNW 0.2mph /  0.3km/h 1mph /  1.6km/h 94% 0.00in /  0mm 33 W/m2
08:34 44.8 °F /  7.1 °C 43.2 °F /  6.2 °C 29.68in /  1005hPa WNW 0.1mph /  0.2km/h 1mph /  1.6km/h 94% 0.00in /  0mm 44 W/m2
08:39 45 °F /  7.2 °C 43.3 °F /  6.3 °C 29.68in /  1005hPa Calm   1mph /  1.6km/h 94% 0.00in /  0mm 44 W/m2
08:44 45.1 °F /  7.3 °C 43.5 °F /  6.4 °C 29.68in /  1005hPa Calm   1mph /  1.6km/h 94% 0.00in /  0mm 49 W/m2
08:49 45.1 °F /  7.3 °C 43.5 °F /  6.4 °C 29.67in /  1004.6hPa Calm     94% 0.00in /  0mm 63 W/m2
08:54 45.4 °F /  7.4 °C 43.8 °F /  6.6 °C 29.67in /  1004.6hPa Calm     94% 0.00in /  0mm 77 W/m2
08:59 45.7 °F /  7.6 °C 44.1 °F /  6.7 °C 29.67in /  1004.6hPa Calm     94% 0.01in /  0.25mm 83 W/m2
09:04 45.9 °F /  7.7 °C 44.3 °F /  6.8 °C 29.67in /  1004.6hPa Calm     94% 0.01in /  0.25mm 83 W/m2
09:09 46.4 °F /  8 °C 44.8 °F /  7.1 °C 29.67in /  1004.6hPa NW 0.5mph /  0.8km/h 2mph /  3.2km/h 94.2% 0.01in /  0.25mm 86 W/m2
09:14 47.2 °F /  8.4 °C 45.7 °F /  7.6 °C 29.67in /  1004.6hPa NE 1mph /  1.6km/h 4mph /  6.4km/h 94.4% 0.01in /  0.25mm 111 W/m2
09:19 47.7 °F /  8.7 °C 46.2 °F /  7.9 °C 29.67in /  1004.6hPa NE 0.4mph /  0.6km/h 3mph /  4.8km/h 94.9% 0.01in /  0.25mm 105 W/m2
09:24 47.8 °F /  8.8 °C 46.2 °F /  7.9 °C 29.67in /  1004.6hPa NE 1.1mph /  1.8km/h 4mph /  6.4km/h 94.5% 0.01in /  0.25mm 107 W/m2
09:29 47.9 °F /  8.8 °C 46.3 °F /  7.9 °C 29.67in /  1004.6hPa ENE 1.7mph /  2.7km/h 5mph /  8km/h 94% 0.01in /  0.25mm 102 W/m2
09:34 48 °F /  8.9 °C 46.4 °F /  8 °C 29.67in /  1004.6hPa ENE 0.1mph /  0.2km/h 5mph /  8km/h 94% 0.01in /  0.25mm 102 W/m2
09:39 48.1 °F /  8.9 °C 46.5 °F /  8.1 °C 29.67in /  1004.6hPa ENE 0.6mph /  1km/h 3mph /  4.8km/h 94% 0.01in /  0.25mm 105 W/m2
09:44 48.3 °F /  9.1 °C 46.7 °F /  8.2 °C 29.67in /  1004.6hPa ENE 0.5mph /  0.8km/h 3mph /  4.8km/h 94% 0.01in /  0.25mm 120 W/m2
09:49 48.5 °F /  9.2 °C 46.9 °F /  8.3 °C 29.67in /  1004.6hPa ENE 0.3mph /  0.5km/h 3mph /  4.8km/h 94% 0.01in /  0.25mm 142 W/m2
09:54 48.8 °F /  9.3 °C 47.2 °F /  8.4 °C 29.67in /  1004.6hPa ENE 1mph /  1.6km/h 3mph /  4.8km/h 94% 0.01in /  0.25mm 141 W/m2
09:59 49.3 °F /  9.6 °C 47.7 °F /  8.7 °C 29.67in /  1004.6hPa East 1.8mph /  2.9km/h 6mph /  9.7km/h 94% 0.01in /  0.25mm 127 W/m2
10:04 49.6 °F /  9.8 °C 47.9 °F /  8.8 °C 29.67in /  1004.6hPa SE 1.3mph /  2.1km/h 6mph /  9.7km/h 94% 0.00in /  0mm 132 W/m2
10:09 49.9 °F /  9.9 °C 48.3 °F /  9.1 °C 29.67in /  1004.6hPa South 3.3mph /  5.3km/h 7mph /  11.3km/h 94% 0.00in /  0mm 118 W/m2
10:14 50.3 °F /  10.2 °C 48.7 °F /  9.3 °C 29.67in /  1004.6hPa South 1.8mph /  2.9km/h 6mph /  9.7km/h 94% 0.00in /  0mm 127 W/m2
10:19 50.6 °F /  10.3 °C 48.9 °F /  9.4 °C 29.67in /  1004.6hPa SSE 1.4mph /  2.3km/h 6mph /  9.7km/h 94% 0.00in /  0mm 127 W/m2
10:24 50.9 °F /  10.5 °C 49.1 °F /  9.5 °C 29.67in /  1004.6hPa SSE 1.9mph /  3.1km/h 5mph /  8km/h 93.4% 0.00in /  0mm 118 W/m2
10:29 51.2 °F /  10.7 °C 49.2 °F /  9.6 °C 29.66in /  1004.3hPa SSE 1.8mph /  2.9km/h 9mph /  14.5km/h 93% 0.00in /  0mm 102 W/m2
10:34 51.3 °F /  10.7 °C 49.4 °F /  9.7 °C 29.66in /  1004.3hPa SSE 2.8mph /  4.5km/h 9mph /  14.5km/h 93% 0.00in /  0mm 104 W/m2
10:39 51.7 °F /  10.9 °C 49.6 °F /  9.8 °C 29.66in /  1004.3hPa SSW 2.2mph /  3.5km/h 8mph /  12.9km/h 92.6% 0.00in /  0mm 97 W/m2
10:44 51.9 °F /  11.1 °C 49.6 °F /  9.8 °C 29.66in /  1004.3hPa SSE 2mph /  3.2km/h 8mph /  12.9km/h 92% 0.00in /  0mm 93 W/m2
10:49 52.1 °F /  11.2 °C 49.6 °F /  9.8 °C 29.66in /  1004.3hPa SSE 0.5mph /  0.8km/h 3mph /  4.8km/h 91.6% 0.00in /  0mm 158 W/m2
10:54 52.2 °F /  11.2 °C 49.7 °F /  9.8 °C 29.66in /  1004.3hPa SSE 2.9mph /  4.7km/h 6mph /  9.7km/h 91% 0.00in /  0mm 190 W/m2
10:59 52.4 °F /  11.3 °C 49.9 °F /  9.9 °C 29.66in /  1004.3hPa SSE 0.9mph /  1.4km/h 6mph /  9.7km/h 91% 0.00in /  0mm 227 W/m2
11:04 52.8 °F /  11.6 °C 50.1 °F /  10.1 °C 29.66in /  1004.3hPa South 3.7mph /  6km/h 8mph /  12.9km/h 90.5% 0.00in /  0mm 255 W/m2
11:09 53.1 °F /  11.7 °C 50.1 °F /  10.1 °C 29.66in /  1004.3hPa South 2mph /  3.2km/h 7mph /  11.3km/h 89.7% 0.00in /  0mm 327 W/m2
11:14 53.4 °F /  11.9 °C 50.1 °F /  10.1 °C 29.66in /  1004.3hPa South 3.6mph /  5.8km/h 7mph /  11.3km/h 88.8% 0.00in /  0mm 285 W/m2
11:19 53.7 °F /  12.1 °C 50.3 °F /  10.2 °C 29.65in /  1003.9hPa South 3.5mph /  5.6km/h 7mph /  11.3km/h 88% 0.00in /  0mm 258 W/m2
11:24 54 °F /  12.2 °C 50.2 °F /  10.1 °C 29.65in /  1003.9hPa SSW 1mph /  1.6km/h 7mph /  11.3km/h 87.1% 0.00in /  0mm 253 W/m2
11:29 54.2 °F /  12.3 °C 50.4 °F /  10.2 °C 29.65in /  1003.9hPa SSE 3.8mph /  6.1km/h 8mph /  12.9km/h 87% 0.00in /  0mm 325 W/m2
11:34 54.3 °F /  12.4 °C 50.4 °F /  10.2 °C 29.66in /  1004.3hPa SSE 3.4mph /  5.5km/h 7mph /  11.3km/h 86.6% 0.00in /  0mm 301 W/m2
11:39 54.6 °F /  12.6 °C 50.4 °F /  10.2 °C 29.66in /  1004.3hPa South 4.5mph /  7.2km/h 9mph /  14.5km/h 86% 0.00in /  0mm 401 W/m2
11:44 54.8 °F /  12.7 °C 50.3 °F /  10.2 °C 29.66in /  1004.3hPa SSW 5.8mph /  9.3km/h 11mph /  17.7km/h 85% 0.00in /  0mm 292 W/m2
11:49 55.1 °F /  12.8 °C 50.4 °F /  10.2 °C 29.65in /  1003.9hPa SW 3.2mph /  5.1km/h 9mph /  14.5km/h 84.2% 0.00in /  0mm 557 W/m2
11:54 55.3 °F /  12.9 °C 50.4 °F /  10.2 °C 29.65in /  1003.9hPa SW 5.8mph /  9.3km/h 10mph /  16.1km/h 83.3% 0.00in /  0mm 336 W/m2
11:59 55.8 °F /  13.2 °C 50.7 °F /  10.4 °C 29.65in /  1003.9hPa SSW 4.7mph /  7.6km/h 9mph /  14.5km/h 82.8% 0.00in /  0mm 612 W/m2
12:04 56.8 °F /  13.8 °C 50.7 °F /  10.4 °C 29.65in /  1003.9hPa SSW 4.5mph /  7.2km/h 8mph /  12.9km/h 80.1% 0.00in /  0mm 557 W/m2
12:09 57.2 °F /  14 °C 50.6 °F /  10.3 °C 29.65in /  1003.9hPa SSW 6mph /  9.7km/h 12mph /  19.3km/h 78.8% 0.00in /  0mm 308 W/m2
12:14 56.7 °F /  13.7 °C 50 °F /  10 °C 29.65in /  1003.9hPa SSW 6.4mph /  10.3km/h 11mph /  17.7km/h 78.7% 0.00in /  0mm 294 W/m2
12:19 56.1 °F /  13.4 °C 49.6 °F /  9.8 °C 29.65in /  1003.9hPa South 4.9mph /  7.9km/h 11mph /  17.7km/h 79% 0.00in /  0mm 260 W/m2
12:24 56 °F /  13.3 °C 49.8 °F /  9.9 °C 29.65in /  1003.9hPa South 5.9mph /  9.5km/h 12mph /  19.3km/h 79.8% 0.00in /  0mm 309 W/m2
12:29 56.4 °F /  13.6 °C 50.1 °F /  10.1 °C 29.64in /  1003.6hPa South 6.2mph /  10km/h 11mph /  17.7km/h 79.7% 0.00in /  0mm 309 W/m2
12:34 56.3 °F /  13.5 °C 50.2 °F /  10.1 °C 29.64in /  1003.6hPa South 4.1mph /  6.6km/h 12mph /  19.3km/h 79.8% 0.00in /  0mm 179 W/m2
12:39 56.2 °F /  13.4 °C 50.1 °F /  10.1 °C 29.64in /  1003.6hPa SSW 4.5mph /  7.2km/h 11mph /  17.7km/h 80% 0.00in /  0mm 316 W/m2
12:44 56.6 °F /  13.7 °C 50.4 °F /  10.2 °C 29.64in /  1003.6hPa SSW 4.4mph /  7.1km/h 12mph /  19.3km/h 80% 0.00in /  0mm 432 W/m2
12:49 56.7 °F /  13.7 °C 50.4 °F /  10.2 °C 29.64in /  1003.6hPa SSW 2.8mph /  4.5km/h 6mph /  9.7km/h 79.4% 0.00in /  0mm 302 W/m2
12:54 56.6 °F /  13.7 °C 50.1 °F /  10.1 °C 29.63in /  1003.3hPa SSW 4.8mph /  7.7km/h 10mph /  16.1km/h 79% 0.00in /  0mm 250 W/m2
12:59 56.5 °F /  13.6 °C 50.2 °F /  10.1 °C 29.63in /  1003.3hPa SSE 2.8mph /  4.5km/h 7mph /  11.3km/h 79.4% 0.00in /  0mm 218 W/m2
13:04 56.9 °F /  13.8 °C 50.7 °F /  10.4 °C 29.63in /  1003.3hPa SSE 2.3mph /  3.7km/h 8mph /  12.9km/h 80% 0.00in /  0mm 250 W/m2
13:09 57.4 °F /  14.1 °C 51.3 °F /  10.7 °C 29.63in /  1003.3hPa SSW 4.1mph /  6.6km/h 10mph /  16.1km/h 80% 0.00in /  0mm 271 W/m2
13:14 57.3 °F /  14.1 °C 50.7 °F /  10.4 °C 29.63in /  1003.3hPa SW 5.5mph /  8.9km/h 11mph /  17.7km/h 78.8% 0.00in /  0mm 330 W/m2
13:19 57.3 °F /  14.1 °C 50.5 °F /  10.3 °C 29.63in /  1003.3hPa South 5mph /  8km/h 8mph /  12.9km/h 78.1% 0.00in /  0mm 376 W/m2
13:24 57.7 °F /  14.3 °C 50.8 °F /  10.4 °C 29.62in /  1002.9hPa South 5.1mph /  8.2km/h 9mph /  14.5km/h 77.7% 0.00in /  0mm 649 W/m2
13:29 58.4 °F /  14.7 °C 50.8 °F /  10.4 °C 29.62in /  1002.9hPa SSW 6.1mph /  9.8km/h 12mph /  19.3km/h 76.1% 0.00in /  0mm 610 W/m2
13:34 59.2 °F /  15.1 °C 51.2 °F /  10.7 °C 29.62in /  1002.9hPa SSW 4.1mph /  6.6km/h 7mph /  11.3km/h 74.7% 0.00in /  0mm 589 W/m2
13:39 59.7 °F /  15.4 °C 51.1 °F /  10.6 °C 29.62in /  1002.9hPa SSW 5.9mph /  9.5km/h 10mph /  16.1km/h 73.1% 0.00in /  0mm 606 W/m2
13:44 59.4 °F /  15.2 °C 51 °F /  10.6 °C 29.62in /  1002.9hPa South 4.1mph /  6.6km/h 10mph /  16.1km/h 73.7% 0.00in /  0mm 584 W/m2
13:49 58.8 °F /  14.9 °C 50.6 °F /  10.3 °C 29.62in /  1002.9hPa SW 5.5mph /  8.9km/h 10mph /  16.1km/h 74.2% 0.00in /  0mm 302 W/m2
13:54 58.6 °F /  14.8 °C 50.7 °F /  10.4 °C 29.62in /  1002.9hPa SSW 4.8mph /  7.7km/h 10mph /  16.1km/h 75% 0.00in /  0mm 316 W/m2
13:59 58.5 °F /  14.7 °C 50.4 °F /  10.2 °C 29.62in /  1002.9hPa South 5mph /  8km/h 11mph /  17.7km/h 74.4% 0.00in /  0mm 197 W/m2
14:04 58.4 °F /  14.7 °C 50.1 °F /  10.1 °C 29.61in /  1002.6hPa SSW 5.9mph /  9.5km/h 11mph /  17.7km/h 74% 0.00in /  0mm 186 W/m2
14:09 58.3 °F /  14.6 °C 50.2 °F /  10.1 °C 29.61in /  1002.6hPa SSW 5.1mph /  8.2km/h 11mph /  17.7km/h 74.4% 0.00in /  0mm 186 W/m2
14:14 58.3 °F /  14.6 °C 50.4 °F /  10.2 °C 29.62in /  1002.9hPa SW 6.4mph /  10.3km/h 12mph /  19.3km/h 75% 0.00in /  0mm 151 W/m2
14:19 57.9 °F /  14.4 °C 50.4 °F /  10.2 °C 29.62in /  1002.9hPa SW 5.5mph /  8.9km/h 12mph /  19.3km/h 75.9% 0.00in /  0mm 156 W/m2
14:24 57.9 °F /  14.4 °C 50.7 °F /  10.4 °C 29.61in /  1002.6hPa SSW 4.4mph /  7.1km/h 10mph /  16.1km/h 77% 0.00in /  0mm 265 W/m2
14:29 57.9 °F /  14.4 °C 51.6 °F /  10.9 °C 29.61in /  1002.6hPa SSW 2.9mph /  4.7km/h 7mph /  11.3km/h 79.5% 0.00in /  0mm 545 W/m2
14:34 57.9 °F /  14.4 °C 51.5 °F /  10.8 °C 29.61in /  1002.6hPa SW 3.9mph /  6.3km/h 10mph /  16.1km/h 79.2% 0.00in /  0mm 545 W/m2
14:39 58.7 °F /  14.8 °C 52.4 °F /  11.3 °C 29.61in /  1002.6hPa SSW 3.7mph /  6km/h 9mph /  14.5km/h 79.2% 0.00in /  0mm 441 W/m2
14:44 58.5 °F /  14.7 °C 51.4 °F /  10.8 °C 29.60in /  1002.3hPa South 2.8mph /  4.5km/h 9mph /  14.5km/h 77.5% 0.00in /  0mm 429 W/m2
14:49 58.6 °F /  14.8 °C 51.6 °F /  10.9 °C 29.60in /  1002.3hPa SSW 3.7mph /  6km/h 9mph /  14.5km/h 77.7% 0.00in /  0mm 483 W/m2
14:54 58.4 °F /  14.7 °C 51.3 °F /  10.7 °C 29.60in /  1002.3hPa South 3mph /  4.8km/h 8mph /  12.9km/h 77.4% 0.00in /  0mm 515 W/m2
14:59 58.4 °F /  14.7 °C 51.5 °F /  10.8 °C 29.60in /  1002.3hPa South 1.5mph /  2.4km/h 6mph /  9.7km/h 77.7% 0.00in /  0mm 515 W/m2
15:04 58.9 °F /  14.9 °C 52.2 °F /  11.2 °C 29.60in /  1002.3hPa South 0.7mph /  1.1km/h 4mph /  6.4km/h 78.3% 0.00in /  0mm 285 W/m2
15:09 59.2 °F /  15.1 °C 52.3 °F /  11.3 °C 29.60in /  1002.3hPa South 0.8mph /  1.3km/h 4mph /  6.4km/h 78% 0.00in /  0mm 339 W/m2
15:14 59.5 °F /  15.3 °C 52.4 °F /  11.3 °C 29.60in /  1002.3hPa South 2.2mph /  3.5km/h 5mph /  8km/h 77.4% 0.00in /  0mm 297 W/m2
15:19 60.3 °F /  15.7 °C 53.3 °F /  11.8 °C 29.59in /  1001.9hPa South 0.7mph /  1.1km/h 5mph /  8km/h 77.6% 0.00in /  0mm 524 W/m2
15:24 60.9 °F /  16.1 °C 52.8 °F /  11.6 °C 29.59in /  1001.9hPa SSW 5.4mph /  8.7km/h 21mph /  33.8km/h 74.5% 0.00in /  0mm 469 W/m2
15:29 59.9 °F /  15.5 °C 50.9 °F /  10.5 °C 29.59in /  1001.9hPa SSW 8.4mph /  13.5km/h 21mph /  33.8km/h 72.1% 0.00in /  0mm 492 W/m2
15:34 60 °F /  15.6 °C 50.6 °F /  10.3 °C 29.59in /  1001.9hPa SW 4mph /  6.4km/h 10mph /  16.1km/h 71% 0.00in /  0mm 492 W/m2
15:39 60.1 °F /  15.6 °C 50.3 °F /  10.2 °C 29.59in /  1001.9hPa SW 6.7mph /  10.8km/h 16mph /  25.7km/h 70.2% 0.00in /  0mm 360 W/m2
15:44 59.5 °F /  15.3 °C 49.7 °F /  9.8 °C 29.59in /  1001.9hPa SW 6.7mph /  10.8km/h 16mph /  25.7km/h 69.9% 0.00in /  0mm 120 W/m2
15:49 59.3 °F /  15.2 °C 49.6 °F /  9.8 °C 29.59in /  1001.9hPa SW 5.4mph /  8.7km/h 9mph /  14.5km/h 70% 0.00in /  0mm 200 W/m2
15:54 59.4 °F /  15.2 °C 50 °F /  10 °C 29.59in /  1001.9hPa SW 6.8mph /  10.9km/h 15mph /  24.1km/h 70.9% 0.00in /  0mm 425 W/m2
15:59 59.9 °F /  15.5 °C 50.4 °F /  10.2 °C 29.59in /  1001.9hPa SW 5.9mph /  9.5km/h 11mph /  17.7km/h 70.7% 0.00in /  0mm 425 W/m2
16:04 60 °F /  15.6 °C 50.1 °F /  10.1 °C 29.59in /  1001.9hPa SW 8.2mph /  13.2km/h 16mph /  25.7km/h 69.8% 0.00in /  0mm 329 W/m2
16:09 59.3 °F /  15.2 °C 49.7 °F /  9.8 °C 29.59in /  1001.9hPa SW 8.8mph /  14.2km/h 20mph /  32.2km/h 70.5% 0.00in /  0mm 185 W/m2
16:14 58.9 °F /  14.9 °C 49.9 °F /  9.9 °C 29.59in /  1001.9hPa SSW 4.2mph /  6.8km/h 10mph /  16.1km/h 72.1% 0.00in /  0mm 118 W/m2
16:19 58.8 °F /  14.9 °C 50.1 °F /  10.1 °C 29.59in /  1001.9hPa SW 7mph /  11.3km/h 12mph /  19.3km/h 72.8% 0.00in /  0mm 165 W/m2
16:24 58.6 °F /  14.8 °C 50 °F /  10 °C 29.59in /  1001.9hPa SSW 5.5mph /  8.9km/h 12mph /  19.3km/h 73% 0.00in /  0mm 123 W/m2
16:29 58.7 °F /  14.8 °C 50.2 °F /  10.1 °C 29.58in /  1001.6hPa SSW 5.4mph /  8.7km/h 12mph /  19.3km/h 73.2% 0.00in /  0mm 269 W/m2
16:34 58.7 °F /  14.8 °C 50.1 °F /  10.1 °C 29.58in /  1001.6hPa SSW 5.6mph /  9km/h 10mph /  16.1km/h 73% 0.00in /  0mm 128 W/m2
16:39 58.6 °F /  14.8 °C 50.3 °F /  10.2 °C 29.58in /  1001.6hPa SW 6.7mph /  10.8km/h 13mph /  20.9km/h 73.9% 0.00in /  0mm 65 W/m2
16:44 58.4 °F /  14.7 °C 50.1 °F /  10.1 °C 29.58in /  1001.6hPa SSW 6.4mph /  10.3km/h 13mph /  20.9km/h 74% 0.00in /  0mm 49 W/m2
16:49 58.2 °F /  14.6 °C 49.9 °F /  9.9 °C 29.58in /  1001.6hPa SW 6.8mph /  10.9km/h 14mph /  22.5km/h 74% 0.00in /  0mm 44 W/m2
16:54 57.9 °F /  14.4 °C 49.5 °F /  9.7 °C 29.58in /  1001.6hPa SW 8.6mph /  13.8km/h 14mph /  22.5km/h 73.8% 0.00in /  0mm 35 W/m2
16:59 57.7 °F /  14.3 °C 49.5 °F /  9.7 °C 29.58in /  1001.6hPa SW 4.4mph /  7.1km/h 13mph /  20.9km/h 74% 0.00in /  0mm 40 W/m2
17:04 57.7 °F /  14.3 °C 49.8 °F /  9.9 °C 29.58in /  1001.6hPa South 3.9mph /  6.3km/h 9mph /  14.5km/h 74.9% 0.00in /  0mm 37 W/m2
17:09 57.6 °F /  14.2 °C 49.7 °F /  9.8 °C 29.58in /  1001.6hPa SW 5.9mph /  9.5km/h 12mph /  19.3km/h 75% 0.00in /  0mm 40 W/m2
17:14 57.5 °F /  14.2 °C 49.7 °F /  9.8 °C 29.58in /  1001.6hPa SW 4.1mph /  6.6km/h 9mph /  14.5km/h 75.4% 0.00in /  0mm 32 W/m2
17:19 57.4 °F /  14.1 °C 49.8 °F /  9.9 °C 29.58in /  1001.6hPa SSW 4.9mph /  7.9km/h 11mph /  17.7km/h 76% 0.00in /  0mm 21 W/m2
17:24 57.4 °F /  14.1 °C 50.1 °F /  10.1 °C 29.58in /  1001.6hPa SSW 6mph /  9.7km/h 12mph /  19.3km/h 76.8% 0.00in /  0mm 26 W/m2
17:29 57.4 °F /  14.1 °C 50.2 °F /  10.1 °C 29.58in /  1001.6hPa SSW 6.4mph /  10.3km/h 15mph /  24.1km/h 77% 0.00in /  0mm 26 W/m2
17:34 57.2 °F /  14 °C 50 °F /  10 °C 29.58in /  1001.6hPa SSW 2.4mph /  3.9km/h 9mph /  14.5km/h 77% 0.00in /  0mm 26 W/m2
17:39 57 °F /  13.9 °C 50.2 °F /  10.1 °C 29.58in /  1001.6hPa SSW 5.2mph /  8.4km/h 10mph /  16.1km/h 77.9% 0.00in /  0mm 18 W/m2
17:44 57 °F /  13.9 °C 50.2 °F /  10.1 °C 29.58in /  1001.6hPa SW 5.4mph /  8.7km/h 12mph /  19.3km/h 78% 0.00in /  0mm 9 W/m2
17:49 57 °F /  13.9 °C 50.4 °F /  10.2 °C 29.58in /  1001.6hPa SSW 7.1mph /  11.4km/h 17mph /  27.4km/h 78.5% 0.00in /  0mm 9 W/m2
17:54 56.8 °F /  13.8 °C 50.4 °F /  10.2 °C 29.58in /  1001.6hPa SSW 6.4mph /  10.3km/h 17mph /  27.4km/h 79% 0.00in /  0mm 5 W/m2
17:59 56.7 °F /  13.7 °C 50.5 °F /  10.3 °C 29.58in /  1001.6hPa SW 6.1mph /  9.8km/h 15mph /  24.1km/h 79.8% 0.00in /  0mm 5 W/m2
18:04 56.7 °F /  13.7 °C 50.3 °F /  10.2 °C 29.58in /  1001.6hPa SW 5.2mph /  8.4km/h 14mph /  22.5km/h 79.2% 0.00in /  0mm 0 W/m2
18:09 56.7 °F /  13.7 °C 50.2 °F /  10.1 °C 29.58in /  1001.6hPa SSW 7mph /  11.3km/h 15mph /  24.1km/h 79% 0.00in /  0mm 0 W/m2
18:14 56.7 °F /  13.7 °C 50.2 °F /  10.1 °C 29.58in /  1001.6hPa SW 8.9mph /  14.3km/h 16mph /  25.7km/h 79% 0.00in /  0mm 0 W/m2
18:19 56.7 °F /  13.7 °C 50.2 °F /  10.1 °C 29.58in /  1001.6hPa SW 4.6mph /  7.4km/h 12mph /  19.3km/h 79% 0.00in /  0mm 0 W/m2
18:24 56.7 °F /  13.7 °C 50.2 °F /  10.1 °C 29.58in /  1001.6hPa SW 5.3mph /  8.5km/h 10mph /  16.1km/h 79% 0.00in /  0mm 0 W/m2
18:29 56.6 °F /  13.7 °C 50.2 °F /  10.1 °C 29.58in /  1001.6hPa SW 4.3mph /  6.9km/h 10mph /  16.1km/h 79.4% 0.00in /  0mm 0 W/m2
18:34 56.5 °F /  13.6 °C 50.4 °F /  10.2 °C 29.57in /  1001.2hPa SW 2.7mph /  4.3km/h 10mph /  16.1km/h 80% 0.00in /  0mm 0 W/m2
18:39 56.4 °F /  13.6 °C 50.3 °F /  10.2 °C 29.57in /  1001.2hPa SSW 2.8mph /  4.5km/h 10mph /  16.1km/h 80% 0.00in /  0mm 0 W/m2
18:44 56.2 °F /  13.4 °C 50.4 °F /  10.2 °C 29.57in /  1001.2hPa SW 3.2mph /  5.1km/h 9mph /  14.5km/h 80.9% 0.00in /  0mm 0 W/m2
18:49 56 °F /  13.3 °C 50.3 °F /  10.2 °C 29.57in /  1001.2hPa SW 3.7mph /  6km/h 7mph /  11.3km/h 81% 0.00in /  0mm 0 W/m2
18:54 55.8 °F /  13.2 °C 50 °F /  10 °C 29.57in /  1001.2hPa SW 6.6mph /  10.6km/h 13mph /  20.9km/h 81% 0.00in /  0mm 0 W/m2
18:59 55.6 °F /  13.1 °C 49.8 °F /  9.9 °C 29.57in /  1001.2hPa SSW 4.7mph /  7.6km/h 11mph /  17.7km/h 81% 0.00in /  0mm 0 W/m2
19:04 55.3 °F /  12.9 °C 49.6 °F /  9.8 °C 29.57in /  1001.2hPa SSW 5.3mph /  8.5km/h 11mph /  17.7km/h 81% 0.00in /  0mm 0 W/m2
19:09 55.2 °F /  12.9 °C 49.5 °F /  9.7 °C 29.57in /  1001.2hPa SSW 4.3mph /  6.9km/h 11mph /  17.7km/h 81% 0.00in /  0mm 0 W/m2
19:14 55.1 °F /  12.8 °C 49.4 °F /  9.7 °C 29.57in /  1001.2hPa SSW 4.7mph /  7.6km/h 12mph /  19.3km/h 81% 0.00in /  0mm 0 W/m2
19:19 55 °F /  12.8 °C 49.3 °F /  9.6 °C 29.56in /  1000.9hPa SSW 4.1mph /  6.6km/h 9mph /  14.5km/h 81% 0.00in /  0mm 0 W/m2
19:24 54.9 °F /  12.7 °C 49.2 °F /  9.6 °C 29.56in /  1000.9hPa SSW 6.2mph /  10km/h 11mph /  17.7km/h 81.1% 0.00in /  0mm 0 W/m2
19:29 54.9 °F /  12.7 °C 49.3 °F /  9.6 °C 29.57in /  1001.2hPa SSW 5.9mph /  9.5km/h 13mph /  20.9km/h 81.4% 0.00in /  0mm 0 W/m2
19:34 54.9 °F /  12.7 °C 49.1 °F /  9.5 °C 29.57in /  1001.2hPa SSW 5.5mph /  8.9km/h 13mph /  20.9km/h 81% 0.00in /  0mm 0 W/m2
19:39 54.8 °F /  12.7 °C 49 °F /  9.4 °C 29.57in /  1001.2hPa SSW 5.4mph /  8.7km/h 12mph /  19.3km/h 81% 0.00in /  0mm 0 W/m2
19:44 54.7 °F /  12.6 °C 48.9 °F /  9.4 °C 29.57in /  1001.2hPa SSW 6.1mph /  9.8km/h 12mph /  19.3km/h 81% 0.00in /  0mm 0 W/m2
19:49 54.5 °F /  12.5 °C 49.1 °F /  9.5 °C 29.57in /  1001.2hPa South 5.9mph /  9.5km/h 14mph /  22.5km/h 82% 0.00in /  0mm 0 W/m2
19:54 54.4 °F /  12.4 °C 49 °F /  9.4 °C 29.56in /  1000.9hPa South 6.9mph /  11.1km/h 13mph /  20.9km/h 82% 0.00in /  0mm 0 W/m2
19:59 54.3 °F /  12.4 °C 48.9 °F /  9.4 °C 29.56in /  1000.9hPa SSW 6.7mph /  10.8km/h 13mph /  20.9km/h 82% 0.00in /  0mm 0 W/m2
20:04 54.2 °F /  12.3 °C 48.8 °F /  9.3 °C 29.56in /  1000.9hPa SSW 5mph /  8km/h 11mph /  17.7km/h 82% 0.00in /  0mm 0 W/m2
20:09 54.1 °F /  12.3 °C 48.7 °F /  9.3 °C 29.56in /  1000.9hPa SSW 5.5mph /  8.9km/h 11mph /  17.7km/h 82% 0.00in /  0mm 0 W/m2
20:14 54.1 °F /  12.3 °C 48.7 °F /  9.3 °C 29.56in /  1000.9hPa SSW 3.8mph /  6.1km/h 11mph /  17.7km/h 82% 0.00in /  0mm 0 W/m2
20:19 54.1 °F /  12.3 °C 48.7 °F /  9.3 °C 29.56in /  1000.9hPa SSW 5.3mph /  8.5km/h 10mph /  16.1km/h 82% 0.00in /  0mm 0 W/m2
20:24 54 °F /  12.2 °C 48.6 °F /  9.2 °C 29.56in /  1000.9hPa SSW 4.1mph /  6.6km/h 10mph /  16.1km/h 82% 0.00in /  0mm 0 W/m2
20:29 54 °F /  12.2 °C 48.9 °F /  9.4 °C 29.56in /  1000.9hPa SSW 4mph /  6.4km/h 10mph /  16.1km/h 82.9% 0.00in /  0mm 0 W/m2
20:34 54.1 °F /  12.3 °C 49 °F /  9.4 °C 29.56in /  1000.9hPa SSW 6.4mph /  10.3km/h 18mph /  29km/h 83% 0.00in /  0mm 0 W/m2
20:39 54 °F /  12.2 °C 49 °F /  9.4 °C 29.55in /  1000.6hPa SSW 5.4mph /  8.7km/h 12mph /  19.3km/h 83% 0.00in /  0mm 0 W/m2
20:44 54 °F /  12.2 °C 48.9 °F /  9.4 °C 29.55in /  1000.6hPa SSW 6mph /  9.7km/h 12mph /  19.3km/h 83% 0.00in /  0mm 0 W/m2
20:49 54 °F /  12.2 °C 48.9 °F /  9.4 °C 29.56in /  1000.9hPa SSW 6.3mph /  10.1km/h 12mph /  19.3km/h 83% 0.00in /  0mm 0 W/m2
20:54 54 °F /  12.2 °C 48.9 °F /  9.4 °C 29.56in /  1000.9hPa SSW 4.1mph /  6.6km/h 11mph /  17.7km/h 83.1% 0.00in /  0mm 0 W/m2
20:59 53.8 °F /  12.1 °C 49.1 °F /  9.5 °C 29.55in /  1000.6hPa South 5.3mph /  8.5km/h 11mph /  17.7km/h 84% 0.00in /  0mm 0 W/m2
21:04 53.8 °F /  12.1 °C 49.2 °F /  9.6 °C 29.55in /  1000.6hPa SSW 5.4mph /  8.7km/h 14mph /  22.5km/h 84.2% 0.00in /  0mm 0 W/m2
21:09 53.5 °F /  11.9 °C 49.1 °F /  9.5 °C 29.56in /  1000.9hPa South 5.7mph /  9.2km/h 11mph /  17.7km/h 84.8% 0.00in /  0mm 0 W/m2
21:14 53.4 °F /  11.9 °C 49.1 °F /  9.5 °C 29.56in /  1000.9hPa SSW 5.1mph /  8.2km/h 10mph /  16.1km/h 85% 0.00in /  0mm 0 W/m2
21:19 53.4 °F /  11.9 °C 49.1 °F /  9.5 °C 29.55in /  1000.6hPa South 5.3mph /  8.5km/h 11mph /  17.7km/h 85.2% 0.00in /  0mm 0 W/m2
21:24 53.4 °F /  11.9 °C 49.3 °F /  9.6 °C 29.55in /  1000.6hPa SSW 3.2mph /  5.1km/h 8mph /  12.9km/h 85.9% 0.00in /  0mm 0 W/m2
21:29 53.4 °F /  11.9 °C 49.3 °F /  9.6 °C 29.55in /  1000.6hPa SSW 3.8mph /  6.1km/h 8mph /  12.9km/h 86% 0.00in /  0mm 0 W/m2
21:34 53.4 °F /  11.9 °C 49.3 °F /  9.6 °C 29.55in /  1000.6hPa South 5.7mph /  9.2km/h 14mph /  22.5km/h 86% 0.00in /  0mm 0 W/m2
21:39 53.4 °F /  11.9 °C 49.3 °F /  9.6 °C 29.54in /  1000.2hPa South 5.8mph /  9.3km/h 14mph /  22.5km/h 86% 0.00in /  0mm 0 W/m2
21:44 53.4 °F /  11.9 °C 49.3 °F /  9.6 °C 29.54in /  1000.2hPa SSW 4.4mph /  7.1km/h 10mph /  16.1km/h 86% 0.00in /  0mm 0 W/m2
21:49 53.6 °F /  12 °C 49.5 °F /  9.7 °C 29.54in /  1000.2hPa South 7.8mph /  12.6km/h 12mph /  19.3km/h 86% 0.00in /  0mm 0 W/m2
21:54 53.8 °F /  12.1 °C 49.5 °F /  9.7 °C 29.54in /  1000.2hPa SSW 4mph /  6.4km/h 12mph /  19.3km/h 85% 0.00in /  0mm 0 W/m2
21:59 53.8 °F /  12.1 °C 49.5 °F /  9.7 °C 29.54in /  1000.2hPa South 5.4mph /  8.7km/h 10mph /  16.1km/h 85% 0.00in /  0mm 0 W/m2
22:04 53.6 °F /  12 °C 49.3 °F /  9.6 °C 29.54in /  1000.2hPa South 6.7mph /  10.8km/h 13mph /  20.9km/h 85% 0.00in /  0mm 0 W/m2
22:09 53.4 °F /  11.9 °C 49.1 °F /  9.5 °C 29.54in /  1000.2hPa South 3.1mph /  5km/h 13mph /  20.9km/h 85% 0.00in /  0mm 0 W/m2
22:14 53.4 °F /  11.9 °C 49.3 °F /  9.6 °C 29.53in /  999.9hPa South 4.7mph /  7.6km/h 10mph /  16.1km/h 85.8% 0.00in /  0mm 0 W/m2
22:19 53.4 °F /  11.9 °C 49.3 °F /  9.6 °C 29.53in /  999.9hPa South 4.3mph /  6.9km/h 8mph /  12.9km/h 86% 0.00in /  0mm 0 W/m2
22:24 53.4 °F /  11.9 °C 49.3 °F /  9.6 °C 29.53in /  999.9hPa South 5mph /  8km/h 10mph /  16.1km/h 86% 0.00in /  0mm 0 W/m2
22:29 53.4 °F /  11.9 °C 49.3 °F /  9.6 °C 29.52in /  999.5hPa South 5.9mph /  9.5km/h 11mph /  17.7km/h 86% 0.00in /  0mm 0 W/m2
22:34 53.4 °F /  11.9 °C 49.3 °F /  9.6 °C 29.52in /  999.5hPa South 5mph /  8km/h 11mph /  17.7km/h 86% 0.00in /  0mm 0 W/m2
22:39 53.4 °F /  11.9 °C 49.3 °F /  9.6 °C 29.52in /  999.5hPa South 6.4mph /  10.3km/h 11mph /  17.7km/h 86% 0.00in /  0mm 0 W/m2
22:44 53.4 °F /  11.9 °C 49.3 °F /  9.6 °C 29.52in /  999.5hPa South 5.9mph /  9.5km/h 10mph /  16.1km/h 86.1% 0.00in /  0mm 0 W/m2
22:49 53.3 °F /  11.8 °C 49.5 °F /  9.7 °C 29.52in /  999.5hPa South 5.6mph /  9km/h 9mph /  14.5km/h 87% 0.01in /  0.25mm 0 W/m2
22:54 53.1 °F /  11.7 °C 49.5 °F /  9.7 °C 29.52in /  999.5hPa South 5.3mph /  8.5km/h 11mph /  17.7km/h 87.4% 0.01in /  0.25mm 0 W/m2
22:59 53 °F /  11.7 °C 49.6 °F /  9.8 °C 29.52in /  999.5hPa South 3.8mph /  6.1km/h 8mph /  12.9km/h 88% 0.01in /  0.25mm 0 W/m2
23:04 52.9 °F /  11.6 °C 49.5 °F /  9.7 °C 29.51in /  999.2hPa SSE 7.4mph /  11.9km/h 14mph /  22.5km/h 88% 0.01in /  0.25mm 0 W/m2
23:09 52.9 °F /  11.6 °C 49.6 °F /  9.8 °C 29.51in /  999.2hPa South 5.8mph /  9.3km/h 11mph /  17.7km/h 88.7% 0.01in /  0.25mm 0 W/m2
23:14 52.9 °F /  11.6 °C 49.6 °F /  9.8 °C 29.51in /  999.2hPa SSE 4.1mph /  6.6km/h 11mph /  17.7km/h 89% 0.01in /  0.25mm 0 W/m2
23:19 52.8 °F /  11.6 °C 49.6 °F /  9.8 °C 29.50in /  998.9hPa SSE 4.5mph /  7.2km/h 8mph /  12.9km/h 89% 0.01in /  0.25mm 0 W/m2
23:24 52.7 °F /  11.5 °C 49.5 °F /  9.7 °C 29.50in /  998.9hPa SSE 3.1mph /  5km/h 8mph /  12.9km/h 89% 0.01in /  0.25mm 0 W/m2
23:29 52.6 °F /  11.4 °C 49.5 °F /  9.7 °C 29.49in /  998.5hPa South 4.3mph /  6.9km/h 8mph /  12.9km/h 89% 0.01in /  0.25mm 0 W/m2
23:34 52.5 °F /  11.4 °C 49.5 °F /  9.7 °C 29.50in /  998.9hPa SSE 4.7mph /  7.6km/h 10mph /  16.1km/h 89% 0.01in /  0.25mm 0 W/m2
23:39 52.5 °F /  11.4 °C 49.5 °F /  9.7 °C 29.49in /  998.5hPa South 4.8mph /  7.7km/h 10mph /  16.1km/h 89% 0.01in /  0.25mm 0 W/m2
23:44 52.5 °F /  11.4 °C 49.5 °F /  9.7 °C 29.49in /  998.5hPa South 4.8mph /  7.7km/h 9mph /  14.5km/h 89% 0.01in /  0.25mm 0 W/m2
23:49 52.5 °F /  11.4 °C 49.3 °F /  9.6 °C 29.49in /  998.5hPa South 6.4mph /  10.3km/h 13mph /  20.9km/h 88.6% 0.00in /  0mm 0 W/m2
23:54 52.5 °F /  11.4 °C 49.1 °F /  9.5 °C 29.49in /  998.5hPa South 6.5mph /  10.5km/h 13mph /  20.9km/h 88% 0.00in /  0mm 0 W/m2
23:59 52.5 °F /  11.4 °C 48.7 °F /  9.3 °C 29.49in /  998.5hPa South 6.3mph /  10.1km/h 14mph /  22.5km/h 87.1% 0.00in /  0mm 0 W/m2
Bath Spa Weather
Compliments of Weather Underground - 2 mb